Time;durP1;ratioP1;P1;durP2;ratioP2;P2;SDS_P1;SDS_P2;PMS_P1;PMS_P2;Temp;Humidity;BMP_temperature;BMP_pressure;BME280_temperature;BME280_humidity;BME280_pressure;Samples;Min_cycle;Max_cycle;Signal;HPM_P1;HPM_P2
2021/09/17 00:01:15;;;;;;;10.87;8.03;;;14.50;99.90;;;;;;5088777;28;20188;-40
2021/09/17 00:03:40;;;;;;;9.90;8.33;;;14.50;99.90;;;;;;5089706;28;20253;-43
2021/09/17 00:06:06;;;;;;;8.80;7.90;;;14.60;99.90;;;;;;5074347;28;20284;-41
2021/09/17 00:08:32;;;;;;;12.17;9.47;;;14.60;99.90;;;;;;5088785;28;20201;-40
2021/09/17 00:10:57;;;;;;;12.67;10.80;;;14.60;99.90;;;;;;5088440;28;20255;-41
2021/09/17 00:13:23;;;;;;;10.33;9.33;;;14.60;99.90;;;;;;5087672;28;20185;-41
2021/09/17 00:15:49;;;;;;;11.50;9.83;;;14.60;99.90;;;;;;5089073;28;20195;-39
2021/09/17 00:18:15;;;;;;;13.03;10.40;;;14.60;99.90;;;;;;5088759;28;20418;-41
2021/09/17 00:20:41;;;;;;;11.10;10.00;;;14.60;99.90;;;;;;5078033;28;20431;-39
2021/09/17 00:23:07;;;;;;;10.50;9.40;;;14.50;99.90;;;;;;5088535;28;20426;-39
2021/09/17 00:25:33;;;;;;;13.80;12.37;;;14.60;99.90;;;;;;5089115;28;20436;-40
2021/09/17 00:27:58;;;;;;;12.23;10.90;;;14.60;99.90;;;;;;5089097;28;20691;-41
2021/09/17 00:30:28;;;;;;;13.63;11.27;;;14.60;99.90;;;;;;5088080;28;20276;-43
2021/09/17 00:32:54;;;;;;;13.80;12.43;;;14.60;99.90;;;;;;5088785;28;20212;-42
2021/09/17 00:35:20;;;;;;;13.67;12.13;;;14.60;99.90;;;;;;5079772;28;20434;-42
2021/09/17 00:37:46;;;;;;;13.37;12.17;;;14.60;99.90;;;;;;5087853;28;20418;-39
2021/09/17 00:40:12;;;;;;;14.63;13.17;;;14.60;99.90;;;;;;5088144;28;20192;-40
2021/09/17 00:42:39;;;;;;;16.80;13.60;;;14.60;99.90;;;;;;5088621;28;20542;-38
2021/09/17 00:45:08;;;;;;;16.90;15.13;;;14.70;99.90;;;;;;5088601;28;20427;-42
2021/09/17 00:47:35;;;;;;;17.67;14.93;;;14.70;99.90;;;;;;5088420;28;21039;-41
2021/09/17 00:50:00;;;;;;;16.53;14.57;;;14.70;99.90;;;;;;5080290;28;20490;-42
2021/09/17 00:52:26;;;;;;;18.60;16.57;;;14.80;99.90;;;;;;5084105;28;20422;-41
2021/09/17 00:54:52;;;;;;;17.53;15.63;;;14.80;99.90;;;;;;5087557;28;20172;-41
2021/09/17 00:57:18;;;;;;;18.30;16.47;;;14.80;99.90;;;;;;5087131;28;20418;-39
2021/09/17 00:59:44;;;;;;;18.50;16.20;;;14.80;99.90;;;;;;5086032;28;20787;-42
2021/09/17 01:02:09;;;;;;;19.63;16.83;;;14.80;99.90;;;;;;5086880;28;20451;-39
2021/09/17 01:04:35;;;;;;;20.23;17.40;;;14.80;99.90;;;;;;5084791;28;20216;-39
2021/09/17 01:07:01;;;;;;;20.20;16.97;;;14.80;99.90;;;;;;5080764;28;20257;-40
2021/09/17 01:09:27;;;;;;;20.80;18.00;;;14.80;99.90;;;;;;5087433;28;20697;-38
2021/09/17 01:11:52;;;;;;;19.07;16.93;;;14.90;99.90;;;;;;5087688;28;20196;-44
2021/09/17 01:14:20;;;;;;;21.90;18.90;;;14.80;99.90;;;;;;5088141;28;20180;-41
2021/09/17 01:16:45;;;;;;;21.90;18.70;;;15.00;99.90;;;;;;5088017;28;20215;-41
2021/09/17 01:19:11;;;;;;;23.87;20.27;;;15.00;99.90;;;;;;5087649;28;20838;-39
2021/09/17 01:21:38;;;;;;;25.10;21.33;;;15.00;99.90;;;;;;5076288;28;20200;-41
2021/09/17 01:24:05;;;;;;;23.83;20.60;;;15.00;99.90;;;;;;5086619;28;20197;-42
2021/09/17 01:26:30;;;;;;;24.00;21.03;;;15.00;99.90;;;;;;5087563;28;20433;-40
2021/09/17 01:28:56;;;;;;;22.60;20.17;;;15.00;99.90;;;;;;5087529;28;20517;-40
2021/09/17 01:31:22;;;;;;;25.30;22.57;;;15.00;99.90;;;;;;5087590;28;20220;-42
2021/09/17 01:33:47;;;;;;;26.53;22.57;;;15.00;99.90;;;;;;5086411;28;20650;-41
2021/09/17 01:36:13;;;;;;;30.93;25.70;;;15.00;99.90;;;;;;5072602;28;20196;-43
2021/09/17 01:38:41;;;;;;;30.30;24.20;;;15.00;99.90;;;;;;5083185;28;20607;-43
2021/09/17 01:41:08;;;;;;;27.93;23.00;;;15.00;99.90;;;;;;5086844;28;20189;-38
2021/09/17 01:43:33;;;;;;;24.90;20.60;;;15.10;99.90;;;;;;5087684;28;20418;-39
2021/09/17 01:45:59;;;;;;;24.13;21.63;;;15.10;99.90;;;;;;5087380;28;20491;-41
2021/09/17 01:48:26;;;;;;;23.83;20.70;;;15.10;99.90;;;;;;5087053;28;20195;-39
2021/09/17 01:50:52;;;;;;;22.07;19.67;;;15.10;99.90;;;;;;5078352;28;20459;-42
2021/09/17 01:53:18;;;;;;;24.70;19.37;;;15.10;99.90;;;;;;5081224;28;20427;-42
2021/09/17 01:55:43;;;;;;;24.37;19.90;;;15.10;99.90;;;;;;5087284;28;20712;-42
2021/09/17 01:58:09;;;;;;;26.87;22.93;;;15.10;99.90;;;;;;5085524;28;20602;-41
2021/09/17 02:00:35;;;;;;;26.60;21.37;;;15.20;99.90;;;;;;5085110;28;20184;-39
2021/09/17 02:03:01;;;;;;;23.93;20.80;;;15.20;99.90;;;;;;5086713;28;20192;-39
2021/09/17 02:05:28;;;;;;;30.93;23.53;;;15.10;99.90;;;;;;5081195;28;20808;-40
2021/09/17 02:07:53;;;;;;;27.20;23.43;;;15.10;99.90;;;;;;5082006;28;20802;-44
2021/09/17 02:10:19;;;;;;;34.73;26.97;;;15.10;99.90;;;;;;5086512;28;20544;-40
2021/09/17 02:12:45;;;;;;;31.20;25.17;;;15.10;99.90;;;;;;5086901;28;20556;-40
2021/09/17 02:15:12;;;;;;;27.87;24.57;;;15.10;99.90;;;;;;5086787;28;20655;-39
2021/09/17 02:17:37;;;;;;;35.13;27.27;;;15.10;99.90;;;;;;5086628;28;20189;-39
2021/09/17 02:20:06;;;;;;;35.83;27.70;;;15.10;99.90;;;;;;5084326;28;20476;-39
2021/09/17 02:22:33;;;;;;;36.40;28.67;;;15.10;99.90;;;;;;5080765;28;20198;-40
2021/09/17 02:25:00;;;;;;;37.20;30.67;;;15.10;99.90;;;;;;5086531;28;20489;-42
2021/09/17 02:27:26;;;;;;;33.57;27.53;;;15.20;99.90;;;;;;5085347;28;20467;-39
2021/09/17 02:29:51;;;;;;;35.40;30.67;;;15.10;99.90;;;;;;5085649;28;20462;-39
2021/09/17 02:32:17;;;;;;;36.40;29.60;;;15.20;99.90;;;;;;5086357;28;20501;-38
2021/09/17 02:34:43;;;;;;;38.60;31.30;;;15.20;99.90;;;;;;5085042;28;20192;-38
2021/09/17 02:37:08;;;;;;;36.70;30.43;;;15.30;99.90;;;;;;5079299;28;20679;-39
2021/09/17 02:39:34;;;;;;;40.03;31.03;;;15.20;99.90;;;;;;5085500;28;20180;-38
2021/09/17 02:42:00;;;;;;;37.53;31.17;;;15.30;99.90;;;;;;5086338;28;20689;-39
2021/09/17 02:44:25;;;;;;;44.87;33.77;;;15.30;99.90;;;;;;5084779;28;20185;-42
2021/09/17 02:46:51;;;;;;;41.70;32.23;;;15.30;99.90;;;;;;5086195;28;20196;-41
2021/09/17 02:49:17;;;;;;;41.00;33.10;;;15.30;99.90;;;;;;5085554;28;20271;-38
2021/09/17 02:51:42;;;;;;;41.87;33.20;;;15.30;99.90;;;;;;5074132;28;20339;-44
2021/09/17 02:54:08;;;;;;;40.50;33.80;;;15.40;99.90;;;;;;5086237;28;20632;-41
2021/09/17 02:56:34;;;;;;;44.33;34.93;;;15.30;99.90;;;;;;5085912;28;20252;-38
2021/09/17 02:59:00;;;;;;;41.10;33.23;;;15.40;99.90;;;;;;5083878;28;20192;-41
2021/09/17 03:01:25;;;;;;;38.50;31.90;;;15.40;99.90;;;;;;5085583;28;20214;-39
2021/09/17 03:03:51;;;;;;;43.83;34.40;;;15.40;99.90;;;;;;5086110;28;20211;-42
2021/09/17 03:06:17;;;;;;;37.30;31.70;;;15.40;99.90;;;;;;5079155;28;20408;-38
2021/09/17 03:08:42;;;;;;;43.10;33.60;;;15.40;99.90;;;;;;5083938;28;20210;-43
2021/09/17 03:11:08;;;;;;;37.93;32.33;;;15.40;99.90;;;;;;5084892;28;20238;-44
2021/09/17 03:13:34;;;;;;;37.20;30.80;;;15.40;99.90;;;;;;5085926;28;20181;-42
2021/09/17 03:16:00;;;;;;;40.60;33.07;;;15.40;99.90;;;;;;5085673;28;20180;-42
2021/09/17 03:18:25;;;;;;;40.43;32.70;;;15.40;99.90;;;;;;5084502;28;20193;-45
2021/09/17 03:20:51;;;;;;;40.17;33.07;;;15.40;99.90;;;;;;5081531;28;20201;-42
2021/09/17 03:23:18;;;;;;;40.37;34.00;;;15.40;99.90;;;;;;5080503;28;20180;-39
2021/09/17 03:25:44;;;;;;;39.80;31.90;;;15.40;99.90;;;;;;5085812;28;20280;-41
2021/09/17 03:28:09;;;;;;;40.07;32.37;;;15.40;99.90;;;;;;5072387;28;20449;-38
2021/09/17 03:30:35;;;;;;;40.27;33.10;;;15.50;99.90;;;;;;5084749;28;20714;-39
2021/09/17 03:33:01;;;;;;;45.80;33.20;;;15.50;99.90;;;;;;5085883;28;20187;-40
2021/09/17 03:35:26;;;;;;;40.60;32.87;;;15.40;99.90;;;;;;5086113;28;20191;-39
2021/09/17 03:37:52;;;;;;;39.40;34.00;;;15.50;99.90;;;;;;5071937;28;20697;-39
2021/09/17 03:40:18;;;;;;;43.13;32.80;;;15.40;99.90;;;;;;5083674;28;20215;-39
2021/09/17 03:42:44;;;;;;;40.30;33.00;;;15.50;99.90;;;;;;5085382;28;20192;-40
2021/09/17 03:45:10;;;;;;;42.57;34.20;;;15.50;99.90;;;;;;5085441;28;20191;-38
2021/09/17 03:47:36;;;;;;;42.33;33.23;;;15.50;99.90;;;;;;5085317;28;20641;-38
2021/09/17 03:50:04;;;;;;;39.60;32.13;;;15.50;99.90;;;;;;5085021;28;20473;-38
2021/09/17 03:52:30;;;;;;;45.83;35.50;;;15.50;99.90;;;;;;5076382;28;20442;-38
2021/09/17 03:54:56;;;;;;;41.63;32.73;;;15.50;99.90;;;;;;5085033;28;20415;-42
2021/09/17 03:57:22;;;;;;;45.00;34.10;;;15.50;99.90;;;;;;5085574;28;20180;-38
2021/09/17 03:59:47;;;;;;;41.90;32.93;;;15.50;99.90;;;;;;5082864;28;20211;-38
2021/09/17 04:02:13;;;;;;;40.17;33.07;;;15.50;99.90;;;;;;5085673;28;20542;-39
2021/09/17 04:04:40;;;;;;;40.87;33.60;;;15.50;99.90;;;;;;5085554;28;20200;-38
2021/09/17 04:07:07;;;;;;;45.13;33.57;;;15.50;99.90;;;;;;5077488;28;20263;-38
2021/09/17 04:09:33;;;;;;;42.17;33.27;;;15.40;99.90;;;;;;5080657;28;20891;-39
2021/09/17 04:11:59;;;;;;;45.90;35.20;;;15.50;99.90;;;;;;5085306;28;20947;-39
2021/09/17 04:14:26;;;;;;;43.30;33.27;;;15.50;99.90;;;;;;5084711;28;20418;-39
2021/09/17 04:16:52;;;;;;;41.20;32.50;;;15.50;99.90;;;;;;5085615;28;20617;-38
2021/09/17 04:19:17;;;;;;;44.23;32.60;;;15.40;99.90;;;;;;5084673;28;20422;-38
2021/09/17 04:21:43;;;;;;;43.63;35.00;;;15.50;99.90;;;;;;5078825;28;20821;-42
2021/09/17 04:24:09;;;;;;;42.53;33.20;;;15.50;99.90;;;;;;5081620;28;20237;-38
2021/09/17 04:26:35;;;;;;;41.97;32.17;;;15.50;99.90;;;;;;5085198;28;20562;-38
2021/09/17 04:29:00;;;;;;;41.50;32.00;;;15.50;99.90;;;;;;5085241;28;20200;-38
2021/09/17 04:31:26;;;;;;;42.70;33.07;;;15.50;99.90;;;;;;5089183;28;20795;-39
2021/09/17 04:33:52;;;;;;;39.83;31.43;;;15.50;99.90;;;;;;5088468;28;20196;-38
2021/09/17 04:36:17;;;;;;;45.90;32.80;;;15.50;99.90;;;;;;5088746;28;20193;-38
2021/09/17 04:38:43;;;;;;;39.40;31.97;;;15.60;99.90;;;;;;5082229;28;20276;-38
2021/09/17 04:41:09;;;;;;;39.20;32.10;;;15.50;99.90;;;;;;5088055;28;20211;-38
2021/09/17 04:43:34;;;;;;;51.20;33.90;;;15.50;99.90;;;;;;5088441;28;20637;-38
2021/09/17 04:46:00;;;;;;;42.53;32.43;;;15.50;99.90;;;;;;5088464;28;20306;-39
2021/09/17 04:48:26;;;;;;;45.17;33.37;;;15.40;99.90;;;;;;5088646;28;20273;-40
2021/09/17 04:50:52;;;;;;;39.07;31.33;;;15.50;99.90;;;;;;5087845;28;20208;-39
2021/09/17 04:53:18;;;;;;;41.33;31.70;;;15.50;99.90;;;;;;5080460;28;20436;-38
2021/09/17 04:55:43;;;;;;;39.57;31.20;;;15.50;99.90;;;;;;5088437;28;20180;-39
2021/09/17 04:58:10;;;;;;;41.53;32.47;;;15.50;99.90;;;;;;5079908;28;20188;-40
2021/09/17 05:00:37;;;;;;;41.27;31.87;;;15.50;99.90;;;;;;5082896;28;20266;-39
2021/09/17 05:03:03;;;;;;;40.37;32.43;;;15.50;99.90;;;;;;5086717;28;20589;-38
2021/09/17 05:05:28;;;;;;;41.23;30.77;;;15.50;99.90;;;;;;5088164;28;20913;-40
2021/09/17 05:07:54;;;;;;;39.90;32.87;;;15.50;99.90;;;;;;5080737;28;20449;-38
2021/09/17 05:10:21;;;;;;;41.70;30.87;;;15.50;99.90;;;;;;5086626;28;20234;-40
2021/09/17 05:12:46;;;;;;;42.90;31.83;;;15.50;99.90;;;;;;5087621;28;20639;-38
2021/09/17 05:15:13;;;;;;;38.63;31.50;;;15.60;99.90;;;;;;5088152;28;20419;-38
2021/09/17 05:17:39;;;;;;;38.57;30.80;;;15.60;99.90;;;;;;5086714;28;20189;-38
2021/09/17 05:20:06;;;;;;;40.53;32.93;;;15.50;99.90;;;;;;5087507;28;20609;-38
2021/09/17 05:22:32;;;;;;;41.00;30.87;;;15.50;99.90;;;;;;5081964;28;20445;-39
2021/09/17 05:24:57;;;;;;;39.13;31.33;;;15.50;99.90;;;;;;5081350;28;20411;-37
2021/09/17 05:27:25;;;;;;;38.90;31.73;;;15.50;99.90;;;;;;5084060;28;20437;-38
2021/09/17 05:29:52;;;;;;;41.63;31.50;;;15.50;99.90;;;;;;5083150;28;20888;-38
2021/09/17 05:32:18;;;;;;;38.37;29.93;;;15.50;99.90;;;;;;5087653;28;20479;-38
2021/09/17 05:34:44;;;;;;;44.00;32.70;;;15.50;99.90;;;;;;5087856;28;20422;-38
2021/09/17 05:37:10;;;;;;;44.83;32.30;;;15.50;99.90;;;;;;5085367;28;20967;-38
2021/09/17 05:39:36;;;;;;;41.10;30.90;;;15.50;99.90;;;;;;5077722;28;20203;-39
2021/09/17 05:42:02;;;;;;;42.73;32.47;;;15.50;99.90;;;;;;5085394;28;20422;-38
2021/09/17 05:44:27;;;;;;;38.23;29.60;;;15.50;99.90;;;;;;5084968;28;20189;-38
2021/09/17 05:46:53;;;;;;;42.23;31.63;;;15.50;99.90;;;;;;5074301;28;20187;-38
2021/09/17 05:49:19;;;;;;;41.17;31.90;;;15.40;99.90;;;;;;5079796;28;20690;-38
2021/09/17 05:51:45;;;;;;;39.07;30.03;;;15.40;99.90;;;;;;5085804;28;20638;-38
2021/09/17 05:54:10;;;;;;;39.67;30.40;;;15.40;99.90;;;;;;5080261;28;20203;-38
2021/09/17 05:56:36;;;;;;;41.97;30.70;;;15.40;99.90;;;;;;5086906;28;20422;-38
2021/09/17 05:59:02;;;;;;;37.60;30.60;;;15.50;99.90;;;;;;5086711;28;20361;-38
2021/09/17 06:01:27;;;;;;;41.57;31.03;;;15.50;99.90;;;;;;5084628;28;20615;-39
2021/09/17 06:03:53;;;;;;;39.37;29.90;;;15.50;99.90;;;;;;5085386;28;20678;-38
2021/09/17 06:06:20;;;;;;;36.53;28.17;;;15.50;99.90;;;;;;5085628;28;20923;-38
2021/09/17 06:08:47;;;;;;;41.00;31.60;;;15.50;99.90;;;;;;5075514;28;20196;-38
2021/09/17 06:11:13;;;;;;;39.30;30.00;;;15.50;99.90;;;;;;5078252;28;20545;-38
2021/09/17 06:13:39;;;;;;;41.13;31.50;;;15.50;99.90;;;;;;5084644;28;20514;-38
2021/09/17 06:16:05;;;;;;;40.13;31.30;;;15.50;99.90;;;;;;5086629;28;20659;-41
2021/09/17 06:18:31;;;;;;;40.83;31.20;;;15.60;99.90;;;;;;5086745;28;20299;-38
2021/09/17 06:20:58;;;;;;;36.87;31.10;;;15.60;99.90;;;;;;5084230;28;20452;-38
2021/09/17 06:23:24;;;;;;;42.43;31.00;;;15.60;99.90;;;;;;5070981;28;20193;-38
2021/09/17 06:25:50;;;;;;;39.27;28.67;;;15.60;99.90;;;;;;5080412;28;20901;-38
2021/09/17 06:28:15;;;;;;;36.80;28.40;;;15.60;99.90;;;;;;5086951;28;20427;-38
2021/09/17 06:30:41;;;;;;;36.93;29.60;;;15.70;99.90;;;;;;5085641;28;20266;-39
2021/09/17 06:33:07;;;;;;;39.47;31.07;;;15.60;99.90;;;;;;5086381;28;20189;-38
2021/09/17 06:35:34;;;;;;;40.87;32.60;;;15.70;99.90;;;;;;5086786;28;20184;-38
2021/09/17 06:38:00;;;;;;;37.87;29.13;;;15.70;99.90;;;;;;5081330;28;20423;-38
2021/09/17 06:40:26;;;;;;;41.93;29.73;;;15.70;99.90;;;;;;5082353;28;20432;-39
2021/09/17 06:42:53;;;;;;;36.10;28.47;;;15.60;99.90;;;;;;5084904;28;20716;-38
2021/09/17 06:45:19;;;;;;;37.40;30.13;;;15.70;99.90;;;;;;5086698;28;20788;-38
2021/09/17 06:47:51;;;;;;;34.97;28.10;;;15.70;99.90;;;;;;5086559;28;20448;-39
2021/09/17 06:50:18;;;;;;;36.73;28.13;;;15.70;99.90;;;;;;5085876;28;20208;-38
2021/09/17 06:52:48;;;;;;;36.57;27.90;;;15.70;99.90;;;;;;5084870;28;20422;-38
2021/09/17 06:55:40;;;;;;;32.03;27.50;;;15.80;99.90;;;;;;5073735;28;20415;-40
2021/09/17 06:58:05;;;;;;;33.90;27.30;;;15.80;99.90;;;;;;5078202;28;20936;-38
2021/09/17 07:00:35;;;;;;;35.97;27.13;;;15.80;99.90;;;;;;5085174;28;20522;-38
2021/09/17 07:03:00;;;;;;;37.03;27.20;;;15.90;99.90;;;;;;5084475;28;20191;-38
2021/09/17 07:05:28;;;;;;;34.70;27.07;;;15.80;99.90;;;;;;5084716;28;20446;-38
2021/09/17 07:08:08;;;;;;;30.53;24.10;;;15.90;99.90;;;;;;5084862;28;20431;-38
2021/09/17 07:10:37;;;;;;;34.93;26.60;;;15.90;99.90;;;;;;5076256;28;20458;-38
2021/09/17 07:13:04;;;;;;;36.37;27.77;;;16.00;99.90;;;;;;5080053;28;20896;-39
2021/09/17 07:15:30;;;;;;;35.27;26.20;;;16.00;99.90;;;;;;5086031;28;20415;-39
2021/09/17 07:17:56;;;;;;;30.27;24.80;;;16.00;99.90;;;;;;5084837;28;20484;-38
2021/09/17 07:20:22;;;;;;;31.47;26.97;;;16.00;99.90;;;;;;5081979;28;20424;-38
2021/09/17 07:22:47;;;;;;;30.87;25.30;;;16.00;99.90;;;;;;5085547;28;20695;-41
2021/09/17 07:25:13;;;;;;;32.10;26.13;;;16.00;99.90;;;;;;5079227;28;20612;-38
2021/09/17 07:27:39;;;;;;;37.13;27.57;;;16.10;99.90;;;;;;5085679;28;20184;-39
2021/09/17 07:30:06;;;;;;;30.40;24.57;;;16.20;99.90;;;;;;5085142;28;20222;-38
2021/09/17 07:32:32;;;;;;;35.77;28.33;;;16.20;99.90;;;;;;5085368;28;20212;-38
2021/09/17 07:34:57;;;;;;;32.57;25.90;;;16.30;99.90;;;;;;5086021;28;20525;-38
2021/09/17 07:37:23;;;;;;;33.07;25.97;;;16.40;99.90;;;;;;5085709;28;20426;-40
2021/09/17 07:39:49;;;;;;;35.57;26.63;;;16.50;99.90;;;;;;5073229;28;20192;-38
2021/09/17 07:42:15;;;;;;;33.37;25.30;;;16.50;99.90;;;;;;5085384;28;20418;-39
2021/09/17 07:44:41;;;;;;;34.70;26.30;;;16.60;99.90;;;;;;5085500;28;20917;-41
2021/09/17 07:47:08;;;;;;;31.63;25.67;;;16.60;99.90;;;;;;5083879;28;20453;-39
2021/09/17 07:49:34;;;;;;;32.80;24.03;;;16.70;99.90;;;;;;5085144;28;20184;-38
2021/09/17 07:52:00;;;;;;;34.00;26.17;;;16.80;99.90;;;;;;5085651;28;20799;-41
2021/09/17 07:54:26;;;;;;;30.93;24.47;;;16.90;99.90;;;;;;5076766;28;20596;-39
2021/09/17 07:56:53;;;;;;;33.40;25.50;;;17.00;99.90;;;;;;5084381;28;20554;-39
2021/09/17 07:59:19;;;;;;;33.40;26.43;;;17.10;99.90;;;;;;5084689;28;20948;-40
2021/09/17 08:01:45;;;;;;;33.30;24.93;;;17.20;99.90;;;;;;5084384;28;20426;-39
2021/09/17 08:04:10;;;;;;;31.80;24.70;;;17.20;99.90;;;;;;5086770;28;20473;-39
2021/09/17 08:06:36;;;;;;;34.90;24.83;;;17.30;99.90;;;;;;5089331;28;20439;-39
2021/09/17 08:09:01;;;;;;;32.70;25.50;;;17.40;99.90;;;;;;5083086;28;20205;-39
2021/09/17 08:11:27;;;;;;;33.50;24.00;;;17.60;99.90;;;;;;5084543;28;20394;-39
2021/09/17 08:13:53;;;;;;;30.37;23.47;;;17.70;99.90;;;;;;5086717;28;20183;-40
2021/09/17 08:16:19;;;;;;;34.40;26.40;;;17.80;99.90;;;;;;5075589;28;20195;-39
2021/09/17 08:18:47;;;;;;;30.67;24.27;;;17.90;99.90;;;;;;5089265;28;20194;-39
2021/09/17 08:21:13;;;;;;;31.47;25.40;;;17.90;99.90;;;;;;5088714;28;20207;-39
2021/09/17 08:23:39;;;;;;;30.30;24.50;;;18.00;99.90;;;;;;5087382;28;20976;-39
2021/09/17 08:26:08;;;;;;;28.97;24.47;;;18.00;99.90;;;;;;5085123;28;20429;-42
2021/09/17 08:28:33;;;;;;;30.20;23.00;;;18.10;99.90;;;;;;5088470;28;20516;-38
2021/09/17 08:31:01;;;;;;;32.50;23.17;;;18.10;99.90;;;;;;5088263;28;20565;-40
2021/09/17 08:33:27;;;;;;;27.90;22.30;;;18.20;99.90;;;;;;5089019;28;20199;-39
2021/09/17 08:35:53;;;;;;;24.20;19.47;;;18.20;99.90;;;;;;5088966;28;20434;-39
2021/09/17 08:38:19;;;;;;;28.77;22.10;;;18.30;99.90;;;;;;5088937;28;20454;-39
2021/09/17 08:40:44;;;;;;;31.37;22.57;;;18.40;99.90;;;;;;5072894;28;20193;-38
2021/09/17 08:43:10;;;;;;;28.80;22.13;;;18.40;99.90;;;;;;5088391;28;20210;-44
2021/09/17 08:45:36;;;;;;;27.00;21.87;;;18.40;99.90;;;;;;5088772;28;20433;-39
2021/09/17 08:48:02;;;;;;;28.30;24.20;;;18.50;99.90;;;;;;5088610;28;20192;-39
2021/09/17 08:50:29;;;;;;;29.77;22.47;;;18.40;99.90;;;;;;5087879;28;20835;-39
2021/09/17 08:52:54;;;;;;;32.40;24.03;;;18.50;99.90;;;;;;5088600;28;20256;-39
2021/09/17 08:55:21;;;;;;;25.67;21.27;;;18.50;99.90;;;;;;5080954;28;20430;-40
2021/09/17 08:57:47;;;;;;;27.60;20.77;;;18.60;99.90;;;;;;5088101;28;20195;-43
2021/09/17 09:00:31;;;;;;;26.13;20.37;;;18.60;99.90;;;;;;5087673;28;20419;-39
2021/09/17 09:03:00;;;;;;;25.40;20.40;;;18.70;99.90;;;;;;5087378;28;20479;-39
2021/09/17 09:05:28;;;;;;;29.63;22.03;;;18.80;99.90;;;;;;5075327;28;20437;-40
2021/09/17 09:07:54;;;;;;;26.80;21.37;;;18.80;99.90;;;;;;5088314;28;20458;-39
2021/09/17 09:10:20;;;;;;;23.33;19.50;;;18.80;99.90;;;;;;5077939;28;20517;-40
2021/09/17 09:12:51;;;;;;;25.90;21.30;;;18.80;99.90;;;;;;5084874;28;20181;-40
2021/09/17 09:15:18;;;;;;;21.73;18.43;;;18.80;99.90;;;;;;5078566;28;20427;-40
2021/09/17 09:17:46;;;;;;;25.87;20.87;;;18.90;99.90;;;;;;5082371;28;20422;-39
2021/09/17 09:20:42;;;;;;;20.63;16.47;;;19.00;99.90;;;;;;5087789;28;20427;-40
2021/09/17 09:23:20;;;;;;;23.37;17.50;;;19.20;99.90;;;;;;5076921;28;20563;-39
2021/09/17 09:26:00;;;;;;;23.17;18.90;;;19.30;99.90;;;;;;5078672;28;20933;-39
2021/09/17 09:28:36;;;;;;;20.40;17.07;;;19.30;99.90;;;;;;5087735;28;20425;-39
2021/09/17 09:31:13;;;;;;;23.83;19.90;;;19.30;99.90;;;;;;5086846;28;20458;-40
2021/09/17 09:33:41;;;;;;;20.80;17.43;;;19.30;99.90;;;;;;5088186;28;20711;-40
2021/09/17 09:36:12;;;;;;;25.03;19.90;;;19.40;99.90;;;;;;5087739;28;20423;-41
2021/09/17 09:38:40;;;;;;;25.43;20.33;;;19.40;99.90;;;;;;5087721;28;20450;-39
2021/09/17 09:41:09;;;;;;;26.40;20.47;;;19.30;99.90;;;;;;5077598;28;20434;-39
2021/09/17 09:43:37;;;;;;;27.10;21.00;;;19.30;99.90;;;;;;5086975;28;20425;-39
2021/09/17 09:46:26;;;;;;;21.50;18.13;;;19.30;99.90;;;;;;5087709;28;20430;-40
2021/09/17 09:49:11;;;;;;;26.37;19.27;;;19.30;99.90;;;;;;5087040;28;20414;-39
2021/09/17 09:51:58;;;;;;;21.20;15.43;;;19.40;99.90;;;;;;5087227;28;20897;-41
2021/09/17 09:54:27;;;;;;;23.90;18.30;;;19.40;99.90;;;;;;5084654;28;20422;-39
2021/09/17 09:56:54;;;;;;;26.67;21.80;;;19.40;99.90;;;;;;5083076;28;20430;-42
2021/09/17 09:59:28;;;;;;;26.20;22.20;;;19.50;99.90;;;;;;5086753;28;20763;-44
2021/09/17 10:01:55;;;;;;;28.20;22.13;;;19.50;99.90;;;;;;5087367;28;20433;-44
2021/09/17 10:04:23;;;;;;;29.10;21.20;;;19.50;99.90;;;;;;5086036;28;20521;-39
2021/09/17 10:07:03;;;;;;;25.53;19.87;;;19.60;99.90;;;;;;5087288;28;20454;-39
2021/09/17 10:09:29;;;;;;;25.67;20.13;;;19.60;99.90;;;;;;5084694;28;20453;-41
2021/09/17 10:11:59;;;;;;;27.13;20.10;;;19.60;99.90;;;;;;5078583;28;20466;-40
2021/09/17 10:14:25;;;;;;;23.20;19.30;;;19.60;99.90;;;;;;5084805;28;20430;-40
2021/09/17 10:16:52;;;;;;;25.97;20.37;;;19.60;99.90;;;;;;5073889;28;20777;-40
2021/09/17 10:19:20;;;;;;;23.63;19.80;;;19.60;99.90;;;;;;5085889;28;20434;-41
2021/09/17 10:21:57;;;;;;;24.57;19.13;;;19.60;99.90;;;;;;5087098;28;20517;-41
2021/09/17 10:24:26;;;;;;;24.13;20.37;;;19.60;99.90;;;;;;5087238;28;20476;-39
2021/09/17 10:27:02;;;;;;;19.70;17.57;;;19.60;99.90;;;;;;5075701;28;20434;-39
2021/09/17 10:29:33;;;;;;;22.80;16.87;;;19.50;99.90;;;;;;5085589;28;20426;-41
2021/09/17 10:32:00;;;;;;;26.90;19.30;;;19.50;99.90;;;;;;5086564;28;20473;-41
2021/09/17 10:34:45;;;;;;;24.63;19.53;;;19.50;99.90;;;;;;5086450;28;20965;-41
2021/09/17 10:37:10;;;;;;;23.27;18.13;;;19.50;99.90;;;;;;5086545;28;20843;-39
2021/09/17 10:39:38;;;;;;;18.80;16.80;;;19.40;99.90;;;;;;5085877;28;20813;-41
2021/09/17 10:42:19;;;;;;;20.33;15.50;;;19.60;99.90;;;;;;5073266;28;20177;-41
2021/09/17 10:45:08;;;;;;;19.10;13.70;;;19.60;99.90;;;;;;5086535;28;20571;-39
2021/09/17 10:47:40;;;;;;;15.37;13.73;;;19.60;99.90;;;;;;5073082;28;20414;-40
2021/09/17 10:50:15;;;;;;;15.37;13.10;;;19.60;99.90;;;;;;5085227;28;20454;-40
2021/09/17 10:52:48;;;;;;;18.37;14.23;;;19.60;99.90;;;;;;5086528;28;20410;-40
2021/09/17 10:55:44;;;;;;;15.23;12.70;;;19.70;99.90;;;;;;5082476;28;20765;-42
2021/09/17 10:58:26;;;;;;;14.40;11.87;;;19.60;99.90;;;;;;5079932;28;20438;-41
2021/09/17 11:01:00;;;;;;;14.53;12.37;;;19.60;99.90;;;;;;5085489;28;20519;-40
2021/09/17 11:03:35;;;;;;;18.23;12.10;;;19.60;99.90;;;;;;5085141;28;20422;-43
2021/09/17 11:06:22;;;;;;;11.93;10.03;;;19.60;99.90;;;;;;5086432;28;20851;-42
2021/09/17 11:08:51;;;;;;;11.33;9.63;;;19.60;99.90;;;;;;5084600;28;20932;-40
2021/09/17 11:11:31;;;;;;;12.03;10.23;;;19.60;99.90;;;;;;5078281;28;20477;-40
2021/09/17 11:14:00;;;;;;;11.60;10.40;;;19.50;99.90;;;;;;5086032;28;20448;-41
2021/09/17 11:16:28;;;;;;;10.93;9.50;;;19.60;99.90;;;;;;5072040;28;20505;-38
2021/09/17 11:18:57;;;;;;;13.30;11.83;;;19.60;99.90;;;;;;5085630;28;20972;-40
2021/09/17 11:21:23;;;;;;;16.73;14.60;;;19.50;99.90;;;;;;5086127;28;20473;-39
2021/09/17 11:23:51;;;;;;;13.40;11.77;;;19.60;99.90;;;;;;5086027;28;20960;-40
2021/09/17 11:26:18;;;;;;;15.47;12.47;;;19.50;99.90;;;;;;5079700;28;20426;-39
2021/09/17 11:28:55;;;;;;;12.77;10.57;;;19.50;99.90;;;;;;5085177;28;20518;-42
2021/09/17 11:31:22;;;;;;;16.83;13.57;;;19.60;99.90;;;;;;5084300;28;20469;-41
2021/09/17 11:33:58;;;;;;;15.00;12.23;;;19.60;99.90;;;;;;5085611;28;20434;-42
2021/09/17 11:36:52;;;;;;;14.70;11.73;;;19.60;99.90;;;;;;5084360;28;20804;-43
2021/09/17 11:39:22;;;;;;;15.60;12.53;;;19.70;99.90;;;;;;5085602;28;20546;-41
2021/09/17 11:41:55;;;;;;;18.77;14.97;;;19.80;99.90;;;;;;5083418;28;20912;-39
2021/09/17 11:44:32;;;;;;;16.13;12.70;;;19.80;99.90;;;;;;5087582;28;20427;-39
2021/09/17 11:46:59;;;;;;;12.90;11.10;;;20.00;99.90;;;;;;5088643;28;20805;-41
2021/09/17 11:49:30;;;;;;;15.83;13.63;;;20.00;99.90;;;;;;5088905;28;20803;-42
2021/09/17 11:52:10;;;;;;;16.73;13.90;;;20.10;99.90;;;;;;5089859;28;20998;-39
2021/09/17 11:54:36;;;;;;;14.33;12.73;;;20.10;99.90;;;;;;5089893;28;20502;-39
2021/09/17 11:57:11;;;;;;;18.23;14.97;;;20.30;99.90;;;;;;5079584;28;20670;-46
2021/09/17 11:59:38;;;;;;;14.53;12.97;;;20.40;99.90;;;;;;5085923;28;20458;-41
2021/09/17 12:02:30;;;;;;;14.50;13.00;;;20.50;99.90;;;;;;5088050;28;20419;-40
2021/09/17 12:04:58;;;;;;;17.60;15.40;;;20.50;99.90;;;;;;5088270;28;20506;-45
2021/09/17 12:07:26;;;;;;;14.43;12.97;;;20.50;99.90;;;;;;5088891;28;20422;-39
2021/09/17 12:09:52;;;;;;;15.30;12.70;;;20.60;99.90;;;;;;5087700;28;20849;-42
2021/09/17 12:12:22;;;;;;;15.93;12.83;;;20.60;99.90;;;;;;5083131;28;20442;-38
2021/09/17 12:14:51;;;;;;;15.73;14.13;;;20.70;99.90;;;;;;5088353;28;20920;-39
2021/09/17 12:17:16;;;;;;;14.70;13.23;;;20.70;99.90;;;;;;5087040;28;20414;-39
2021/09/17 12:20:07;;;;;;;14.87;13.17;;;20.80;99.90;;;;;;5086723;28;20486;-41
2021/09/17 12:22:44;;;;;;;13.90;12.50;;;20.90;99.90;;;;;;5085787;28;20191;-39
2021/09/17 12:25:18;;;;;;;13.47;11.97;;;21.00;99.90;;;;;;5087081;28;20426;-41
2021/09/17 12:27:47;;;;;;;13.00;11.70;;;21.10;99.90;;;;;;5081373;28;20430;-39
2021/09/17 12:30:21;;;;;;;11.60;10.43;;;21.10;99.90;;;;;;5087308;28;20955;-38
2021/09/17 12:33:08;;;;;;;11.97;10.53;;;21.20;99.90;;;;;;5087062;28;20902;-39